Time;durP1;ratioP1;P1;durP2;ratioP2;P2;SDS_P1;SDS_P2;PMS_P1;PMS_P2;Temp;Humidity;BMP_temperature;BMP_pressure;BME280_temperature;BME280_humidity;BME280_pressure;Samples;Min_cycle;Max_cycle;Signal;HPM_P1;HPM_P2
2022/11/15 00:00:54;;;;;;;2.47;0.50;;;11.50;99.90;;;;;;5012445;28;20046;-64
2022/11/15 00:03:23;;;;;;;3.50;0.70;;;11.50;99.90;;;;;;5014163;28;20018;-65
2022/11/15 00:05:49;;;;;;;4.15;0.50;;;11.60;99.90;;;;;;5015166;28;20025;-65
2022/11/15 00:08:15;;;;;;;4.13;0.40;;;11.50;99.90;;;;;;5013582;28;20395;-65
2022/11/15 00:10:40;;;;;;;2.03;0.25;;;11.60;99.90;;;;;;5015663;28;20041;-65
2022/11/15 00:13:11;;;;;;;1.08;0.30;;;11.60;99.90;;;;;;5009025;28;20034;-65
2022/11/15 00:15:41;;;;;;;3.03;0.73;;;11.60;99.90;;;;;;5005845;28;20081;-65
2022/11/15 00:18:14;;;;;;;1.85;0.40;;;11.50;99.90;;;;;;5026163;28;20039;-65
2022/11/15 00:20:40;;;;;;;4.72;0.68;;;11.50;99.90;;;;;;5014866;28;20036;-65
2022/11/15 00:23:06;;;;;;;6.22;0.47;;;11.60;99.90;;;;;;5001937;28;20031;-65
2022/11/15 00:25:32;;;;;;;2.30;0.52;;;11.60;99.90;;;;;;5001875;28;20035;-65
2022/11/15 00:27:59;;;;;;;3.55;0.50;;;11.70;99.90;;;;;;5009546;28;20028;-65
2022/11/15 00:30:26;;;;;;;3.92;0.55;;;11.80;99.90;;;;;;5007428;28;20042;-65
2022/11/15 00:32:52;;;;;;;3.55;1.13;;;11.70;99.90;;;;;;5003706;28;20057;-65
2022/11/15 00:35:18;;;;;;;1.80;0.80;;;11.80;99.90;;;;;;5000744;28;20385;-64
2022/11/15 00:37:44;;;;;;;1.17;0.32;;;11.80;99.90;;;;;;5019340;28;20064;-65
2022/11/15 00:40:12;;;;;;;3.72;0.50;;;11.80;99.90;;;;;;5015328;28;20471;-65
2022/11/15 00:42:38;;;;;;;4.13;0.70;;;11.90;99.90;;;;;;5011456;28;20516;-65
2022/11/15 00:45:04;;;;;;;2.92;0.85;;;12.00;99.90;;;;;;5009966;28;20022;-63
2022/11/15 00:47:30;;;;;;;5.80;0.60;;;12.00;99.90;;;;;;5014957;28;20397;-63
2022/11/15 00:49:55;;;;;;;2.50;0.47;;;11.90;99.90;;;;;;5013100;28;20030;-64
2022/11/15 00:52:21;;;;;;;7.07;0.82;;;11.90;99.90;;;;;;5013252;28;20045;-64
2022/11/15 00:54:47;;;;;;;1.45;0.40;;;11.90;99.90;;;;;;5011252;28;20037;-64
2022/11/15 00:57:12;;;;;;;4.30;0.63;;;11.90;99.90;;;;;;5022729;28;20078;-63
2022/11/15 00:59:38;;;;;;;1.25;0.60;;;12.00;99.90;;;;;;5014136;28;20486;-64
2022/11/15 01:02:04;;;;;;;5.68;0.88;;;12.00;99.90;;;;;;5009123;28;20492;-64
2022/11/15 01:04:29;;;;;;;2.80;0.45;;;12.00;99.90;;;;;;5014927;28;20033;-64
2022/11/15 01:06:55;;;;;;;7.20;0.68;;;11.90;99.90;;;;;;5011448;28;20391;-63
2022/11/15 01:09:21;;;;;;;3.97;0.40;;;11.90;99.90;;;;;;5012262;28;20100;-63
2022/11/15 01:11:47;;;;;;;3.75;0.50;;;11.80;99.90;;;;;;4998997;28;20133;-63
2022/11/15 01:14:13;;;;;;;3.63;0.50;;;11.70;99.90;;;;;;5001355;28;20121;-63
2022/11/15 01:16:39;;;;;;;4.93;0.47;;;11.60;99.90;;;;;;5020075;28;20151;-64
2022/11/15 01:19:04;;;;;;;2.35;0.50;;;11.80;99.90;;;;;;5003759;28;20485;-64
2022/11/15 01:21:30;;;;;;;4.45;0.57;;;11.70;99.90;;;;;;5018200;28;20025;-64
2022/11/15 01:23:56;;;;;;;5.60;0.68;;;11.70;99.90;;;;;;5009096;28;20037;-64
2022/11/15 01:26:24;;;;;;;3.03;0.73;;;11.70;99.90;;;;;;5014066;28;20500;-64
2022/11/15 01:28:49;;;;;;;7.22;0.70;;;11.70;99.90;;;;;;4996099;28;20053;-64
2022/11/15 01:31:18;;;;;;;5.90;0.70;;;11.70;99.90;;;;;;5018148;28;20482;-63
2022/11/15 01:33:44;;;;;;;6.03;0.57;;;11.80;99.90;;;;;;5010537;28;20449;-64
2022/11/15 01:36:13;;;;;;;3.90;0.55;;;11.90;99.90;;;;;;5015860;28;20386;-64
2022/11/15 01:38:39;;;;;;;1.98;0.40;;;11.90;99.90;;;;;;5016821;28;20038;-64
2022/11/15 01:41:05;;;;;;;6.80;0.55;;;11.90;99.90;;;;;;5013789;28;20124;-63
2022/11/15 01:43:33;;;;;;;4.13;0.80;;;11.90;99.90;;;;;;5016124;28;20018;-63
2022/11/15 01:46:18;;;;;;;4.90;1.08;;;12.00;99.90;;;;;;5018011;28;20416;-64
2022/11/15 01:48:44;;;;;;;4.55;0.70;;;12.10;99.90;;;;;;5014240;28;20033;-64
2022/11/15 01:51:13;;;;;;;5.15;2.05;;;12.10;99.90;;;;;;5004089;28;20041;-64
2022/11/15 01:53:41;;;;;;;10.63;1.08;;;12.10;99.90;;;;;;5004157;28;20038;-63
2022/11/15 01:56:10;;;;;;;3.17;0.55;;;12.20;99.90;;;;;;5013993;28;20029;-64
2022/11/15 01:58:37;;;;;;;2.65;0.68;;;12.30;99.90;;;;;;5013792;28;20466;-64
2022/11/15 02:01:03;;;;;;;6.15;0.85;;;12.30;99.90;;;;;;4293041;28;20176;-63
2022/11/15 02:03:56;;;;;;;5.43;0.77;;;12.30;99.90;;;;;;5013064;28;20499;-64
2022/11/15 02:06:22;;;;;;;5.72;0.73;;;12.30;99.90;;;;;;5006870;28;20486;-64
2022/11/15 02:08:49;;;;;;;4.72;0.90;;;12.30;99.90;;;;;;5011195;28;20478;-64
2022/11/15 02:11:15;;;;;;;7.40;1.23;;;12.30;99.90;;;;;;5007051;28;20048;-63
2022/11/15 02:13:41;;;;;;;6.88;1.15;;;12.30;99.90;;;;;;5007586;28;20496;-64
2022/11/15 02:16:15;;;;;;;6.80;1.00;;;12.40;99.90;;;;;;5010499;28;20133;-64
2022/11/15 02:18:49;;;;;;;8.23;1.05;;;12.40;99.90;;;;;;5019601;28;20030;-64
2022/11/15 02:21:45;;;;;;;5.75;0.80;;;12.40;99.90;;;;;;5015094;28;20025;-64
2022/11/15 02:24:27;;;;;;;10.73;1.55;;;12.50;99.90;;;;;;5019241;28;20121;-64
2022/11/15 02:27:17;;;;;;;2.08;0.40;;;12.60;99.90;;;;;;5006942;28;20065;-63
2022/11/15 02:30:04;;;;;;;2.25;0.38;;;12.60;99.90;;;;;;5012070;28;20030;-64
2022/11/15 02:32:56;;;;;;;4.43;1.10;;;12.70;99.90;;;;;;4999688;28;20038;-64
2022/11/15 02:35:43;;;;;;;13.38;1.08;;;12.60;99.90;;;;;;4983703;28;20395;-65
2022/11/15 02:38:16;;;;;;;1.95;0.80;;;12.50;99.90;;;;;;5014390;28;20032;-64
2022/11/15 02:41:04;;;;;;;1.70;0.47;;;12.50;99.90;;;;;;5014409;28;20513;-65
2022/11/15 02:43:56;;;;;;;4.30;1.23;;;12.50;99.90;;;;;;5007264;28;20026;-65
2022/11/15 02:49:29;;;;;;;2.75;0.50;;;12.60;99.90;;;;;;5017185;28;20519;-64
2022/11/15 02:51:55;;;;;;;3.33;0.60;;;12.60;99.90;;;;;;5015111;28;20100;-63
2022/11/15 02:54:33;;;;;;;4.80;0.80;;;12.70;99.90;;;;;;5022108;28;20022;-64
2022/11/15 02:57:14;;;;;;;3.40;1.08;;;12.70;99.90;;;;;;5003770;28;20030;-63
2022/11/15 02:59:58;;;;;;;9.90;1.15;;;12.80;99.90;;;;;;5023415;28;20029;-64
2022/11/15 03:02:39;;;;;;;6.20;0.60;;;12.80;99.90;;;;;;5007838;28;20109;-64
2022/11/15 03:05:10;;;;;;;5.35;0.77;;;12.80;99.90;;;;;;5017079;28;20030;-64
2022/11/15 03:07:59;;;;;;;5.65;1.30;;;12.80;99.90;;;;;;5014402;28;20092;-64
2022/11/15 03:11:12;;;;;;;3.42;0.75;;;12.80;99.90;;;;;;5016015;28;20054;-65
2022/11/15 03:13:58;;;;;;;3.42;0.55;;;12.80;99.90;;;;;;5001619;28;20462;-64
2022/11/15 03:16:33;;;;;;;4.32;0.50;;;12.80;99.90;;;;;;5003687;28;20107;-64
2022/11/15 03:19:06;;;;;;;2.25;0.50;;;12.70;99.90;;;;;;5010997;28;20053;-65
2022/11/15 03:21:33;;;;;;;3.58;0.75;;;12.70;99.90;;;;;;5015668;28;20120;-64
2022/11/15 03:24:04;;;;;;;4.90;0.95;;;12.70;99.90;;;;;;5008244;28;20026;-64
2022/11/15 03:26:30;;;;;;;11.63;1.38;;;12.80;99.90;;;;;;5016674;28;20025;-62
2022/11/15 03:29:03;;;;;;;5.40;1.30;;;12.80;99.90;;;;;;5017594;28;20024;-64
2022/11/15 03:31:46;;;;;;;8.07;1.00;;;12.70;99.90;;;;;;4998902;28;20430;-65
2022/11/15 03:34:37;;;;;;;5.38;0.80;;;12.80;99.90;;;;;;4997239;28;20088;-65
2022/11/15 03:37:03;;;;;;;13.18;1.23;;;12.80;99.90;;;;;;4998981;28;20414;-64
2022/11/15 03:39:29;;;;;;;5.22;1.20;;;12.80;99.90;;;;;;5022001;28;20129;-63
2022/11/15 03:41:55;;;;;;;4.95;0.90;;;12.80;99.90;;;;;;5017802;28;20497;-64
2022/11/15 03:44:58;;;;;;;6.78;1.35;;;12.80;99.90;;;;;;5005701;28;20110;-64
2022/11/15 03:47:39;;;;;;;11.23;1.00;;;12.80;99.90;;;;;;5001741;28;20052;-63
2022/11/15 03:50:20;;;;;;;4.45;1.30;;;12.70;99.90;;;;;;5014127;28;20038;-63
2022/11/15 03:52:47;;;;;;;4.35;0.98;;;12.80;99.90;;;;;;5016783;28;20041;-64
2022/11/15 03:55:17;;;;;;;8.15;1.55;;;12.70;99.90;;;;;;4997404;28;20030;-63
2022/11/15 03:57:43;;;;;;;5.18;0.73;;;12.70;99.90;;;;;;5004754;28;20075;-64
2022/11/15 04:00:09;;;;;;;5.88;0.93;;;12.70;99.90;;;;;;5008564;28;20102;-65
2022/11/15 04:02:35;;;;;;;3.53;0.70;;;12.70;99.90;;;;;;5014175;28;20087;-64
2022/11/15 04:05:01;;;;;;;6.20;1.02;;;12.70;99.90;;;;;;5018658;28;20425;-64
2022/11/15 04:07:26;;;;;;;4.28;0.77;;;12.60;99.90;;;;;;5010238;28;20233;-64
2022/11/15 04:10:01;;;;;;;4.47;0.80;;;12.70;99.90;;;;;;5023400;28;20065;-64
2022/11/15 04:12:31;;;;;;;5.45;0.98;;;12.70;99.90;;;;;;5017475;28;20408;-64
2022/11/15 04:15:07;;;;;;;4.45;0.90;;;12.70;99.90;;;;;;5025430;28;20037;-63
2022/11/15 04:17:34;;;;;;;5.10;1.05;;;12.60;99.90;;;;;;5015996;28;20026;-63
2022/11/15 04:25:28;;;;;;;8.45;1.17;;;12.50;99.90;;;;;;5007501;28;20041;-63
2022/11/15 04:27:54;;;;;;;4.72;1.42;;;12.50;99.90;;;;;;5007616;28;20034;-63
2022/11/15 04:30:20;;;;;;;3.38;0.52;;;12.50;99.90;;;;;;5015415;28;20393;-63
2022/11/15 04:32:46;;;;;;;4.88;0.90;;;12.50;99.90;;;;;;5021641;28;20052;-64
2022/11/15 04:35:11;;;;;;;9.15;1.30;;;12.50;99.90;;;;;;5013022;28;20100;-66
2022/11/15 04:37:37;;;;;;;8.10;1.58;;;12.50;99.90;;;;;;5009450;28;20540;-64
2022/11/15 04:40:03;;;;;;;7.65;1.42;;;12.50;99.90;;;;;;5009531;28;20108;-63
2022/11/15 04:42:29;;;;;;;6.78;1.13;;;12.60;99.90;;;;;;5015895;28;20026;-64
2022/11/15 04:44:55;;;;;;;3.08;0.60;;;12.60;99.90;;;;;;5008427;28;20030;-63
2022/11/15 04:47:21;;;;;;;7.65;1.75;;;12.60;99.90;;;;;;5014969;28;20092;-64
2022/11/15 04:49:47;;;;;;;9.05;1.02;;;12.70;99.90;;;;;;5017868;28;20359;-64
2022/11/15 04:52:12;;;;;;;5.55;0.85;;;12.60;99.90;;;;;;5016132;28;20038;-64
2022/11/15 04:54:38;;;;;;;3.85;0.85;;;12.60;99.90;;;;;;5003967;28;20026;-64
2022/11/15 04:57:04;;;;;;;6.43;0.60;;;12.70;99.90;;;;;;5013090;28;20409;-63
2022/11/15 04:59:29;;;;;;;5.93;1.25;;;12.60;99.90;;;;;;5013571;28;20116;-64
2022/11/15 05:01:55;;;;;;;7.20;1.20;;;12.60;99.90;;;;;;5013451;28;20045;-64
2022/11/15 05:04:21;;;;;;;6.05;1.35;;;12.60;99.90;;;;;;5016023;28;20056;-65
2022/11/15 05:06:50;;;;;;;5.80;0.98;;;12.70;99.90;;;;;;5025488;28;20397;-63
2022/11/15 05:09:18;;;;;;;4.75;1.65;;;12.70;99.90;;;;;;5014650;28;20025;-63
2022/11/15 05:11:44;;;;;;;5.90;0.88;;;12.70;99.90;;;;;;5016703;28;20167;-64
2022/11/15 05:14:10;;;;;;;5.25;1.23;;;12.60;99.90;;;;;;5016396;28;20022;-64
2022/11/15 05:16:36;;;;;;;4.63;0.82;;;12.60;99.90;;;;;;5015148;28;20028;-64
2022/11/15 05:19:02;;;;;;;7.18;0.88;;;12.60;99.90;;;;;;5015761;28;20124;-64
2022/11/15 05:21:27;;;;;;;6.60;0.73;;;12.70;99.90;;;;;;5012768;28;20049;-64
2022/11/15 05:23:53;;;;;;;8.98;1.60;;;12.60;99.90;;;;;;5010132;28;20034;-64
2022/11/15 05:26:19;;;;;;;7.85;1.10;;;12.60;99.90;;;;;;5014093;28;20037;-64
2022/11/15 05:28:45;;;;;;;4.70;1.15;;;12.70;99.90;;;;;;5010207;28;20478;-63
2022/11/15 05:31:14;;;;;;;11.32;1.85;;;12.70;99.90;;;;;;5010822;28;20060;-64
2022/11/15 05:33:41;;;;;;;4.80;1.35;;;12.60;99.90;;;;;;5011768;28;20030;-65
2022/11/15 05:36:16;;;;;;;4.88;0.90;;;12.60;99.90;;;;;;5009959;28;20053;-64
2022/11/15 05:38:42;;;;;;;6.93;1.45;;;12.60;99.90;;;;;;5011739;28;20032;-64
2022/11/15 05:41:08;;;;;;;10.30;1.58;;;12.60;99.90;;;;;;5013411;28;20041;-64
2022/11/15 05:43:36;;;;;;;8.60;1.65;;;12.60;99.90;;;;;;5011421;28;20018;-64
2022/11/15 05:46:04;;;;;;;8.55;1.65;;;12.60;99.90;;;;;;5009386;28;20030;-64
2022/11/15 05:48:29;;;;;;;8.40;1.27;;;12.60;99.90;;;;;;5015718;28;20030;-65
2022/11/15 05:50:56;;;;;;;8.05;1.23;;;12.60;99.90;;;;;;5007476;28;20029;-63
2022/11/15 05:53:24;;;;;;;8.05;1.67;;;12.60;99.90;;;;;;5004323;28;20108;-64
2022/11/15 05:55:50;;;;;;;5.60;1.08;;;12.70;99.90;;;;;;5009297;28;20068;-64
2022/11/15 05:58:16;;;;;;;8.52;1.30;;;12.70;99.90;;;;;;5012839;28;20029;-64
2022/11/15 06:00:43;;;;;;;6.70;1.17;;;12.60;99.90;;;;;;5011037;28;20057;-64
2022/11/15 06:03:09;;;;;;;5.78;1.15;;;12.70;99.90;;;;;;5007934;28;20037;-64
2022/11/15 06:05:34;;;;;;;10.82;1.20;;;12.60;99.90;;;;;;5011491;28;20034;-65
2022/11/15 06:08:00;;;;;;;12.63;1.05;;;12.70;99.90;;;;;;5007898;28;20026;-64
2022/11/15 06:10:26;;;;;;;9.20;1.23;;;12.70;99.90;;;;;;5015172;28;20041;-64
2022/11/15 06:13:03;;;;;;;9.90;1.55;;;12.70;99.90;;;;;;5020123;28;20033;-63
2022/11/15 06:15:28;;;;;;;7.18;0.95;;;12.70;99.90;;;;;;5011126;28;20022;-63
2022/11/15 06:17:57;;;;;;;5.18;0.82;;;12.80;99.90;;;;;;5007885;28;20037;-63
2022/11/15 06:20:25;;;;;;;4.03;0.85;;;12.80;99.90;;;;;;5015180;28;20121;-63
2022/11/15 06:22:55;;;;;;;4.60;0.88;;;12.80;99.90;;;;;;5016188;28;20113;-64
2022/11/15 06:25:21;;;;;;;6.25;0.95;;;12.70;99.90;;;;;;5002340;28;20352;-63
2022/11/15 06:27:54;;;;;;;9.43;1.48;;;12.70;99.90;;;;;;5009954;28;20037;-63
2022/11/15 06:30:20;;;;;;;4.38;1.38;;;12.60;99.90;;;;;;5005138;28;20585;-64
2022/11/15 06:32:46;;;;;;;8.50;1.15;;;12.50;99.90;;;;;;5007729;28;20050;-64
2022/11/15 06:35:13;;;;;;;6.75;1.25;;;12.50;99.90;;;;;;4999008;28;20474;-64
2022/11/15 06:37:38;;;;;;;8.82;1.23;;;12.50;99.90;;;;;;5007709;28;20070;-63
2022/11/15 06:40:05;;;;;;;8.55;1.90;;;12.40;99.90;;;;;;5012712;28;20117;-64
2022/11/15 06:42:31;;;;;;;6.95;1.25;;;12.30;99.90;;;;;;5006282;28;20442;-64
2022/11/15 06:44:56;;;;;;;4.78;0.90;;;12.30;99.90;;;;;;5007241;28;20128;-63
2022/11/15 06:47:22;;;;;;;12.30;1.42;;;12.30;99.90;;;;;;5008064;28;20036;-65
2022/11/15 06:49:48;;;;;;;3.25;0.80;;;12.30;99.90;;;;;;5015580;28;20033;-64
2022/11/15 06:52:13;;;;;;;13.05;2.40;;;12.40;99.90;;;;;;5002966;28;20069;-64
2022/11/15 06:54:39;;;;;;;11.45;1.85;;;12.40;99.90;;;;;;5018910;28;20091;-64
2022/11/15 06:57:05;;;;;;;7.45;1.63;;;12.40;99.90;;;;;;5010148;28;20486;-63
2022/11/15 06:59:31;;;;;;;10.15;2.00;;;12.50;99.90;;;;;;5025422;28;20021;-64
2022/11/15 07:01:56;;;;;;;12.20;2.70;;;12.50;99.90;;;;;;5005928;28;20064;-65
2022/11/15 07:04:22;;;;;;;10.13;1.90;;;12.50;99.90;;;;;;5010019;28;20041;-65
2022/11/15 07:06:54;;;;;;;7.72;1.75;;;12.50;99.90;;;;;;5004929;28;20084;-65
2022/11/15 07:09:19;;;;;;;3.90;0.88;;;12.50;99.90;;;;;;5007382;28;20034;-65
2022/11/15 07:11:45;;;;;;;8.38;1.50;;;12.40;99.90;;;;;;5007951;28;20045;-63
2022/11/15 07:14:11;;;;;;;7.07;1.58;;;12.30;99.90;;;;;;5018676;28;20084;-64
2022/11/15 07:16:37;;;;;;;8.55;1.77;;;12.30;99.90;;;;;;5014955;28;20076;-64
2022/11/15 07:19:03;;;;;;;6.57;1.52;;;12.20;99.90;;;;;;5004787;28;20458;-64
2022/11/15 07:21:29;;;;;;;7.65;1.20;;;12.20;99.90;;;;;;5011232;28;20040;-65
2022/11/15 07:23:55;;;;;;;10.35;5.07;;;12.20;99.90;;;;;;5013461;28;20025;-68
2022/11/15 07:26:21;;;;;;;10.18;1.65;;;12.20;99.90;;;;;;5012355;28;20469;-70
2022/11/15 07:28:46;;;;;;;8.27;1.30;;;12.20;99.90;;;;;;5011635;28;20072;-71
2022/11/15 07:31:12;;;;;;;12.07;1.88;;;12.10;99.90;;;;;;5010191;28;20038;-71
2022/11/15 07:33:38;;;;;;;10.93;1.58;;;12.00;99.90;;;;;;4999059;28;20391;-71
2022/11/15 07:36:06;;;;;;;7.05;1.75;;;12.00;99.90;;;;;;5012502;28;20025;-72
2022/11/15 07:38:33;;;;;;;10.15;1.35;;;12.00;99.90;;;;;;5011683;28;20110;-72
2022/11/15 07:41:01;;;;;;;11.63;1.25;;;12.00;99.90;;;;;;5013437;28;20030;-75
2022/11/15 07:43:32;;;;;;;12.52;2.05;;;12.00;99.90;;;;;;5012117;28;20030;-72
2022/11/15 07:45:58;;;;;;;11.82;1.65;;;12.10;99.90;;;;;;5009283;28;20033;-73
2022/11/15 07:48:24;;;;;;;8.95;1.88;;;12.10;99.90;;;;;;5012519;28;20026;-78
2022/11/15 07:50:49;;;;;;;7.00;1.80;;;12.00;99.90;;;;;;5009984;28;20049;-83
2022/11/15 07:53:15;;;;;;;15.68;2.22;;;12.00;99.90;;;;;;5007913;28;20045;-74
2022/11/15 07:55:41;;;;;;;9.95;1.38;;;12.10;99.90;;;;;;5001030;28;20030;-76
2022/11/15 07:58:09;;;;;;;8.50;2.05;;;12.10;99.90;;;;;;5006559;28;20038;-79
2022/11/15 08:00:36;;;;;;;10.25;1.48;;;12.10;99.90;;;;;;5003404;28;20052;-74
2022/11/15 08:03:07;;;;;;;6.78;1.40;;;12.00;99.90;;;;;;5006013;28;20052;-73
2022/11/15 08:05:34;;;;;;;13.60;1.60;;;12.00;99.90;;;;;;5008730;28;20030;-73
2022/11/15 08:08:00;;;;;;;10.88;1.65;;;12.00;99.90;;;;;;5004756;28;20114;-69
2022/11/15 08:10:27;;;;;;;8.50;1.92;;;12.00;99.90;;;;;;5007534;28;20112;-72
2022/11/15 08:13:04;;;;;;;11.73;1.67;;;12.00;99.90;;;;;;5015648;28;20037;-71
2022/11/15 08:15:30;;;;;;;9.20;1.98;;;12.00;99.90;;;;;;5012163;28;20105;-72
2022/11/15 08:18:01;;;;;;;9.88;1.65;;;11.90;99.90;;;;;;5008276;28;20034;-74
2022/11/15 08:20:31;;;;;;;11.50;1.63;;;12.00;99.90;;;;;;5014216;28;20034;-75
2022/11/15 08:22:59;;;;;;;14.27;2.80;;;12.00;99.90;;;;;;4992108;28;20394;-74
2022/11/15 08:25:26;;;;;;;14.80;1.50;;;12.00;99.90;;;;;;5013766;28;20589;-75
2022/11/15 08:27:56;;;;;;;11.77;1.50;;;12.00;99.90;;;;;;5007979;28;20022;-74
2022/11/15 08:30:23;;;;;;;6.38;1.77;;;12.00;99.90;;;;;;5016730;28;20088;-71
2022/11/15 08:32:50;;;;;;;10.25;2.10;;;12.00;99.90;;;;;;5005459;28;20043;-70
2022/11/15 08:35:16;;;;;;;10.35;1.90;;;11.90;99.90;;;;;;5003482;28;20484;-69
2022/11/15 08:37:42;;;;;;;13.23;1.65;;;11.90;99.90;;;;;;5004098;28;20037;-68
2022/11/15 08:40:09;;;;;;;10.25;1.55;;;12.00;99.90;;;;;;5000607;28;20030;-69
2022/11/15 08:42:35;;;;;;;11.73;2.28;;;11.90;99.90;;;;;;5005100;28;20120;-67
2022/11/15 08:45:01;;;;;;;7.95;1.88;;;11.90;99.90;;;;;;5002962;28;20122;-67
2022/11/15 08:47:26;;;;;;;8.98;1.40;;;12.00;99.90;;;;;;5001298;28;20517;-67
2022/11/15 08:49:52;;;;;;;6.72;1.52;;;12.00;99.90;;;;;;5003482;28;20125;-67
2022/11/15 08:52:18;;;;;;;7.93;1.70;;;12.00;99.90;;;;;;5007860;28;20083;-66
2022/11/15 08:54:44;;;;;;;7.22;1.08;;;12.10;99.90;;;;;;5006173;28;20451;-68
2022/11/15 08:57:10;;;;;;;11.15;2.13;;;12.10;99.90;;;;;;4977034;28;20041;-70
2022/11/15 08:59:38;;;;;;;8.50;1.88;;;12.10;99.90;;;;;;5009409;28;20437;-68
2022/11/15 09:02:04;;;;;;;10.70;1.77;;;12.10;99.90;;;;;;5006725;28;20079;-65
2022/11/15 09:04:30;;;;;;;16.48;5.05;;;12.10;99.90;;;;;;5009522;28;20473;-67
2022/11/15 09:06:56;;;;;;;15.27;2.08;;;12.10;99.90;;;;;;5002349;28;20022;-68
2022/11/15 09:09:22;;;;;;;11.30;2.25;;;12.10;99.90;;;;;;5002691;28;20033;-66
2022/11/15 09:11:48;;;;;;;12.50;2.30;;;12.10;99.90;;;;;;4998911;28;20439;-70
2022/11/15 09:14:14;;;;;;;7.88;1.88;;;12.10;99.90;;;;;;5006832;28;20041;-70
2022/11/15 09:16:40;;;;;;;13.63;2.40;;;12.10;99.90;;;;;;5007718;28;20115;-69
2022/11/15 09:19:06;;;;;;;8.93;2.08;;;12.00;99.90;;;;;;5010841;28;20474;-68
2022/11/15 09:21:32;;;;;;;10.38;1.63;;;12.10;99.90;;;;;;5006043;28;20034;-69
2022/11/15 09:23:58;;;;;;;10.35;1.48;;;12.10;99.90;;;;;;5004440;28;20033;-70
2022/11/15 09:42:53;;;;;;;6.55;1.60;;;12.20;99.90;;;;;;5053670;28;20957;-67
2022/11/15 09:45:31;;;;;;;6.10;1.95;;;12.20;99.90;;;;;;5038035;28;20029;-67
2022/11/15 09:48:18;;;;;;;9.45;2.13;;;12.20;99.90;;;;;;5038587;28;20025;-71
2022/11/15 09:50:50;;;;;;;13.07;2.65;;;12.20;99.90;;;;;;5048576;28;20094;-71
2022/11/15 09:53:46;;;;;;;9.55;1.65;;;12.20;99.90;;;;;;5042419;28;20025;-70
2022/11/15 09:56:24;;;;;;;6.50;1.15;;;12.20;99.90;;;;;;5043868;28;20489;-71
2022/11/15 09:58:53;;;;;;;9.35;2.13;;;12.20;99.90;;;;;;5043603;28;20083;-70
2022/11/15 10:01:47;;;;;;;15.02;2.05;;;12.10;99.90;;;;;;5041240;28;20026;-70
2022/11/15 10:17:00;;;;;;;15.70;2.20;;;12.20;99.90;;;;;;5064358;28;20399;-70
2022/11/15 10:19:43;;;;;;;10.10;1.42;;;12.20;99.90;;;;;;5063690;28;20037;-72
2022/11/15 10:22:12;;;;;;;11.15;1.55;;;12.20;99.90;;;;;;5063121;28;20190;-72
2022/11/15 10:24:42;;;;;;;7.38;1.67;;;12.20;99.90;;;;;;5064149;28;20510;-71
2022/11/15 10:27:14;;;;;;;12.35;1.88;;;12.20;99.90;;;;;;5062300;28;20028;-71
2022/11/15 10:29:47;;;;;;;7.03;1.27;;;12.20;99.90;;;;;;5059878;28;20035;-71
2022/11/15 10:32:15;;;;;;;8.25;1.50;;;12.20;99.90;;;;;;5063596;28;20033;-70
2022/11/15 10:34:41;;;;;;;20.08;2.55;;;12.20;99.90;;;;;;5064397;28;20500;-72
2022/11/15 10:37:07;;;;;;;7.50;1.52;;;12.30;99.90;;;;;;5059056;28;20107;-72
2022/11/15 10:39:33;;;;;;;9.73;1.92;;;12.30;99.90;;;;;;5062496;28;20118;-72
2022/11/15 10:42:27;;;;;;;13.32;1.80;;;12.30;99.90;;;;;;5061453;28;20025;-71
2022/11/15 10:44:53;;;;;;;8.38;1.42;;;12.30;99.90;;;;;;5064226;28;20021;-72
2022/11/15 10:47:27;;;;;;;10.52;1.73;;;12.30;99.90;;;;;;5058756;28;20029;-71
2022/11/15 10:49:56;;;;;;;13.00;1.85;;;12.40;99.90;;;;;;5064335;28;20059;-71
2022/11/15 10:52:23;;;;;;;13.68;1.65;;;12.30;99.90;;;;;;5064842;28;20079;-71
2022/11/15 10:55:03;;;;;;;6.80;1.25;;;12.30;99.90;;;;;;5064723;28;20033;-71
2022/11/15 10:57:36;;;;;;;5.88;1.25;;;12.40;99.90;;;;;;5063807;28;20025;-69
2022/11/15 11:00:22;;;;;;;5.60;1.42;;;12.30;99.90;;;;;;5064812;28;20021;-69
2022/11/15 11:02:56;;;;;;;12.10;2.67;;;12.30;99.90;;;;;;5064304;28;20033;-69
2022/11/15 11:05:33;;;;;;;9.60;1.98;;;12.30;99.90;;;;;;5065987;28;20062;-70
2022/11/15 11:08:20;;;;;;;9.50;1.73;;;12.30;99.90;;;;;;5060711;28;20052;-69
2022/11/15 11:10:56;;;;;;;10.57;2.25;;;12.30;99.90;;;;;;5063697;28;20478;-72
2022/11/15 11:13:22;;;;;;;12.45;1.58;;;12.40;99.90;;;;;;5063981;28;20020;-71
2022/11/15 11:15:55;;;;;;;12.73;1.92;;;12.40;99.90;;;;;;5053898;28;20139;-69
2022/11/15 11:18:57;;;;;;;10.80;1.27;;;12.40;99.90;;;;;;5062294;28;20036;-72
2022/11/15 11:21:39;;;;;;;10.68;1.52;;;12.40;99.90;;;;;;5057037;28;20112;-68
2022/11/15 11:24:32;;;;;;;13.32;3.50;;;12.40;99.90;;;;;;5061231;28;20033;-70
2022/11/15 11:27:08;;;;;;;15.75;1.70;;;12.40;99.90;;;;;;5054922;28;20369;-71
2022/11/15 11:29:49;;;;;;;8.52;1.60;;;12.40;99.90;;;;;;5046436;28;20033;-72
2022/11/15 11:32:29;;;;;;;10.00;2.65;;;12.40;99.90;;;;;;5047486;28;20139;-72
2022/11/15 11:35:25;;;;;;;10.23;2.38;;;12.40;99.90;;;;;;5048495;28;20056;-72
2022/11/15 11:38:16;;;;;;;9.02;1.98;;;12.50;99.90;;;;;;5040694;28;20499;-72
2022/11/15 11:41:08;;;;;;;10.95;2.72;;;12.60;99.90;;;;;;5049327;28;20079;-72
2022/11/15 11:43:55;;;;;;;8.18;1.70;;;12.60;99.90;;;;;;5047083;28;20204;-72
2022/11/15 11:46:55;;;;;;;17.98;2.58;;;12.60;99.90;;;;;;5050557;28;20120;-71
2022/11/15 11:49:45;;;;;;;9.73;1.70;;;12.60;99.90;;;;;;5029655;28;20111;-72
2022/11/15 11:52:23;;;;;;;5.30;1.20;;;12.60;99.90;;;;;;5023396;28;20052;-71
2022/11/15 11:55:00;;;;;;;11.88;1.95;;;12.60;99.90;;;;;;5027651;28;20087;-71
2022/11/15 11:57:48;;;;;;;16.38;2.50;;;12.60;99.90;;;;;;5028451;28;20483;-70
2022/11/15 12:00:22;;;;;;;18.05;2.53;;;12.60;99.90;;;;;;5023713;28;20063;-71
2022/11/15 12:03:20;;;;;;;9.95;1.45;;;12.60;99.90;;;;;;5024342;28;20157;-71
2022/11/15 12:05:59;;;;;;;9.80;2.40;;;12.60;99.90;;;;;;5026025;28;20033;-70
2022/11/15 12:08:38;;;;;;;17.02;1.85;;;12.50;99.90;;;;;;5026690;28;20026;-70
2022/11/15 12:11:14;;;;;;;11.48;2.15;;;12.60;99.90;;;;;;5019288;28;20026;-71
2022/11/15 12:13:42;;;;;;;12.80;1.75;;;12.60;99.90;;;;;;5019883;28;20521;-71
2022/11/15 12:16:16;;;;;;;7.80;1.38;;;12.60;99.90;;;;;;5024954;28;20058;-69
2022/11/15 12:18:48;;;;;;;9.20;1.40;;;12.60;99.90;;;;;;5030312;28;20025;-68
2022/11/15 12:21:18;;;;;;;;;;;12.60;99.90;;;;;;5018025;28;20065;-69
2022/11/15 12:23:52;;;;;;;14.35;2.80;;;12.60;99.90;;;;;;5026193;28;19920;-71
2022/11/15 12:26:26;;;;;;;9.50;2.00;;;12.70;99.90;;;;;;5034239;28;20044;-70
2022/11/15 12:29:19;;;;;;;12.18;3.10;;;12.70;99.90;;;;;;5048222;28;20028;-69
2022/11/15 12:31:51;;;;;;;6.72;2.22;;;12.80;99.90;;;;;;5051529;28;20063;-69
2022/11/15 12:34:22;;;;;;;10.07;2.08;;;12.80;99.90;;;;;;5051555;28;20029;-69
2022/11/15 12:36:50;;;;;;;8.80;1.95;;;12.80;99.90;;;;;;5049099;28;20123;-70
2022/11/15 12:39:17;;;;;;;10.68;1.65;;;12.80;99.90;;;;;;5049918;28;20434;-69
2022/11/15 12:41:56;;;;;;;10.07;2.00;;;12.80;99.90;;;;;;5049343;28;20025;-69
2022/11/15 12:44:31;;;;;;;13.27;2.03;;;12.80;99.90;;;;;;5044215;28;20404;-69
2022/11/15 12:46:56;;;;;;;6.68;1.52;;;12.80;99.90;;;;;;5049484;28;20033;-72
2022/11/15 12:49:28;;;;;;;8.85;1.45;;;12.90;99.90;;;;;;5052943;28;20039;-71
2022/11/15 12:51:57;;;;;;;11.98;2.40;;;13.00;99.90;;;;;;5044722;28;20033;-70
2022/11/15 12:54:22;;;;;;;14.10;2.30;;;13.00;99.90;;;;;;5052715;28;20400;-64
2022/11/15 12:57:03;;;;;;;10.07;2.67;;;13.00;99.90;;;;;;5067600;28;20033;-71
2022/11/15 12:59:57;;;;;;;7.07;1.92;;;13.10;99.90;;;;;;5047088;28;20039;-73
2022/11/15 13:03:14;;;;;;;6.85;1.30;;;13.10;99.90;;;;;;5048199;28;20029;-74
2022/11/15 13:05:40;;;;;;;9.07;2.22;;;13.20;99.90;;;;;;5027207;28;20037;-71
2022/11/15 13:08:07;;;;;;;11.10;2.25;;;13.30;99.90;;;;;;5027691;28;20034;-70
2022/11/15 13:10:33;;;;;;;14.02;1.73;;;13.40;99.90;;;;;;5030377;28;20079;-72
2022/11/15 13:13:07;;;;;;;10.10;2.20;;;13.50;99.90;;;;;;5024090;28;20136;-72
2022/11/15 13:15:34;;;;;;;12.48;1.52;;;13.60;99.90;;;;;;5024269;28;20060;-72
2022/11/15 13:18:29;;;;;;;11.75;2.13;;;13.70;99.90;;;;;;5024774;28;20346;-72
2022/11/15 13:20:54;;;;;;;9.55;1.45;;;13.80;99.90;;;;;;5026266;28;20037;-72
2022/11/15 13:23:22;;;;;;;10.00;1.83;;;13.90;99.90;;;;;;5029425;28;20051;-71
2022/11/15 13:26:10;;;;;;;11.73;1.52;;;14.00;99.90;;;;;;5028513;28;20029;-70
2022/11/15 13:28:41;;;;;;;12.77;2.40;;;14.00;99.90;;;;;;5025051;28;20045;-72
2022/11/15 13:31:27;;;;;;;9.50;1.15;;;14.00;99.90;;;;;;5033176;28;20033;-72
2022/11/15 13:33:55;;;;;;;6.25;1.10;;;13.90;99.90;;;;;;5026759;28;20040;-73
2022/11/15 13:36:29;;;;;;;6.68;1.65;;;13.90;99.90;;;;;;5022483;28;20029;-73
2022/11/15 13:39:02;;;;;;;4.65;0.80;;;13.80;99.90;;;;;;5025893;28;20039;-74
2022/11/15 13:41:30;;;;;;;8.40;1.55;;;13.80;99.90;;;;;;5042917;28;20037;-72